createdAt,value
2017-11-13T00:00:56.878Z,4.71
2017-11-13T00:01:56.861Z,4.71
2017-11-13T00:02:56.854Z,4.80
2017-11-13T00:03:56.842Z,4.84
2017-11-13T00:04:56.836Z,4.84
2017-11-13T00:05:56.818Z,4.68
2017-11-13T00:06:56.801Z,4.83
2017-11-13T00:07:56.796Z,4.74
2017-11-13T00:08:56.791Z,4.80
2017-11-13T00:09:56.773Z,4.80
2017-11-13T00:10:56.767Z,4.84
2017-11-13T00:11:56.746Z,4.83
2017-11-13T00:12:56.735Z,4.79
2017-11-13T00:13:56.727Z,4.87
2017-11-13T00:14:56.726Z,4.91
2017-11-13T00:15:56.707Z,4.96
2017-11-13T00:16:56.691Z,5.12
2017-11-13T00:17:56.690Z,5.05
2017-11-13T00:18:56.677Z,5.11
2017-11-13T00:19:56.656Z,5.06
2017-11-13T00:20:56.647Z,5.17
2017-11-13T00:21:56.638Z,5.11
2017-11-13T00:22:56.625Z,5.01
2017-11-13T00:23:56.616Z,4.99
2017-11-13T00:24:56.611Z,4.96
2017-11-13T00:25:56.599Z,4.88
2017-11-13T00:26:56.589Z,4.93
2017-11-13T00:27:56.570Z,4.86
2017-11-13T00:28:56.565Z,4.93
2017-11-13T00:29:56.563Z,5.01
2017-11-13T00:30:56.543Z,5.01
2017-11-13T00:31:56.536Z,4.99
2017-11-13T00:32:56.524Z,4.99
2017-11-13T00:33:56.504Z,4.88
2017-11-13T00:34:56.509Z,5.08
2017-11-13T00:35:56.480Z,5.11
2017-11-13T00:36:56.478Z,5.04
2017-11-13T00:37:56.461Z,5.04
2017-11-13T00:38:56.450Z,4.99
2017-11-13T00:39:56.438Z,5.09
2017-11-13T00:40:56.427Z,5.08
2017-11-13T00:41:56.425Z,4.96
2017-11-13T00:42:56.407Z,5.04
2017-11-13T00:43:56.399Z,5.06
2017-11-13T00:44:56.385Z,5.08
2017-11-13T00:45:56.372Z,5.19
2017-11-13T00:46:56.362Z,5.06
2017-11-13T00:47:56.349Z,5.09
2017-11-13T00:48:56.347Z,5.12
2017-11-13T00:49:56.339Z,5.15
2017-11-13T00:50:56.318Z,5.04
2017-11-13T00:51:56.306Z,5.09
2017-11-13T00:52:56.305Z,4.99
2017-11-13T00:53:56.288Z,4.99
2017-11-13T00:54:56.275Z,4.87
2017-11-13T00:55:56.271Z,4.91
2017-11-13T00:56:56.269Z,4.90
2017-11-13T00:57:56.241Z,4.88
2017-11-13T00:58:56.236Z,4.87
2017-11-13T00:59:56.225Z,4.94
2017-11-13T01:00:56.208Z,4.99
2017-11-13T01:01:56.198Z,4.91
2017-11-13T01:02:56.186Z,4.90
2017-11-13T01:03:56.175Z,4.86
2017-11-13T01:04:56.177Z,4.90
2017-11-13T01:05:56.160Z,4.96
2017-11-13T01:06:56.147Z,4.94
2017-11-13T01:07:56.133Z,4.96
2017-11-13T01:08:56.120Z,4.99
2017-11-13T01:09:56.125Z,5.06
2017-11-13T01:10:56.102Z,4.94
2017-11-13T01:11:56.095Z,5.02
2017-11-13T01:12:56.083Z,4.99
2017-11-13T01:13:56.072Z,5.08
2017-11-13T01:14:56.057Z,4.96
2017-11-13T01:15:56.044Z,4.94
2017-11-13T01:16:56.042Z,4.94
2017-11-13T01:17:56.030Z,4.87
2017-11-13T01:18:56.029Z,4.83
2017-11-13T01:19:56.003Z,4.77
2017-11-13T01:20:55.997Z,4.74
2017-11-13T01:21:55.979Z,4.71
2017-11-13T01:22:55.966Z,4.79
2017-11-13T01:23:55.965Z,4.75
2017-11-13T01:24:55.947Z,4.69
2017-11-13T01:25:55.943Z,4.69
2017-11-13T01:26:55.925Z,4.74
2017-11-13T01:27:55.915Z,4.71
2017-11-13T01:28:55.908Z,4.77
2017-11-13T01:29:55.898Z,4.84
2017-11-13T01:30:55.889Z,4.65
2017-11-13T01:31:55.882Z,4.72
2017-11-13T01:32:55.859Z,4.71
2017-11-13T01:33:55.848Z,4.75
2017-11-13T01:34:55.836Z,4.68
2017-11-13T01:35:55.833Z,4.75
2017-11-13T01:36:55.816Z,4.72
2017-11-13T01:37:55.806Z,4.74
2017-11-13T01:38:55.794Z,4.68
2017-11-13T01:39:55.780Z,4.77
2017-11-13T01:40:55.775Z,4.71
2017-11-13T01:41:55.765Z,4.68
2017-11-13T01:42:55.769Z,4.88
2017-11-13T01:43:55.738Z,4.75
2017-11-13T01:44:55.728Z,4.84
2017-11-13T01:45:55.716Z,4.75
2017-11-13T01:46:55.709Z,4.79
2017-11-13T01:47:55.713Z,4.80
2017-11-13T01:48:55.688Z,4.74
2017-11-13T01:49:55.684Z,4.83
2017-11-13T01:50:55.660Z,4.79
2017-11-13T01:51:55.648Z,4.83
2017-11-13T01:52:55.645Z,4.91
2017-11-13T01:53:55.636Z,4.97
2017-11-13T01:54:55.630Z,5.01
2017-11-13T01:55:55.611Z,5.06
2017-11-13T01:56:55.604Z,5.08
2017-11-13T01:57:55.592Z,5.09
2017-11-13T01:58:55.572Z,5.02
2017-11-13T01:59:55.574Z,5.20
2017-11-13T02:00:55.558Z,5.20
2017-11-13T02:01:55.546Z,5.22
2017-11-13T02:02:55.530Z,5.24
2017-11-13T02:03:55.531Z,5.33
2017-11-13T02:04:55.509Z,5.23
2017-11-13T02:05:55.495Z,5.27
2017-11-13T02:06:55.494Z,5.26
2017-11-13T02:07:55.472Z,5.33
2017-11-13T02:08:55.462Z,5.26
2017-11-13T02:09:55.458Z,5.32
2017-11-13T02:10:55.451Z,5.15
2017-11-13T02:11:55.438Z,5.17
2017-11-13T02:12:55.426Z,4.94
2017-11-13T02:13:55.408Z,5.17
2017-11-13T02:14:55.396Z,5.22
2017-11-13T02:15:55.383Z,5.22
2017-11-13T02:16:55.372Z,5.22
2017-11-13T02:17:55.375Z,5.05
2017-11-13T02:18:55.358Z,5.05
2017-11-13T02:19:55.337Z,5.08
2017-11-13T02:20:55.328Z,5.08
2017-11-13T02:21:55.318Z,5.06
2017-11-13T02:22:55.320Z,5.01
2017-11-13T02:23:55.294Z,4.93
2017-11-13T02:24:55.282Z,5.04
2017-11-13T02:25:55.271Z,5.20
2017-11-13T02:26:55.262Z,5.22
2017-11-13T02:27:55.257Z,5.20
2017-11-13T02:28:55.244Z,5.22
2017-11-13T02:29:55.228Z,5.19
2017-11-13T02:30:55.226Z,5.06
2017-11-13T02:31:55.218Z,5.02
2017-11-13T02:32:55.209Z,5.09
2017-11-13T02:33:55.185Z,5.15
2017-11-13T02:34:55.172Z,5.01
2017-11-13T02:35:55.161Z,4.93
2017-11-13T02:36:55.155Z,4.90
2017-11-13T02:37:55.149Z,4.87
2017-11-13T02:38:55.135Z,5.04
2017-11-13T02:39:55.128Z,5.17
2017-11-13T02:40:55.104Z,5.14
2017-11-13T02:41:55.092Z,5.17
2017-11-13T02:42:55.082Z,5.12
2017-11-13T02:43:55.071Z,5.15
2017-11-13T02:44:55.059Z,5.08
2017-11-13T02:45:55.049Z,4.93
2017-11-13T02:46:55.037Z,4.96
2017-11-13T02:47:55.026Z,4.83
2017-11-13T02:48:55.015Z,4.71
2017-11-13T02:49:55.019Z,4.69
2017-11-13T02:50:54.998Z,4.67
2017-11-13T02:51:54.981Z,4.72
2017-11-13T02:52:54.969Z,4.79
2017-11-13T02:53:54.967Z,4.75
2017-11-13T02:54:54.946Z,4.67
2017-11-13T02:55:54.936Z,4.75
2017-11-13T02:56:54.925Z,4.67
2017-11-13T02:57:54.918Z,4.74
2017-11-13T02:58:54.907Z,4.71
2017-11-13T02:59:54.888Z,4.84
2017-11-13T03:00:54.893Z,4.80
2017-11-13T03:01:54.878Z,4.74
2017-11-13T03:02:54.870Z,4.74
2017-11-13T03:03:54.844Z,4.80
2017-11-13T03:04:54.850Z,4.68
2017-11-13T03:05:54.823Z,4.72
2017-11-13T03:06:54.817Z,4.68
2017-11-13T03:07:54.804Z,4.74
2017-11-13T03:08:54.789Z,4.69
2017-11-13T03:09:54.786Z,4.62
2017-11-13T03:10:54.765Z,4.77
2017-11-13T03:11:54.757Z,4.84
2017-11-13T03:12:54.752Z,4.74
2017-11-13T03:13:54.733Z,4.79
2017-11-13T03:14:54.722Z,4.83
2017-11-13T03:15:54.720Z,4.90
2017-11-13T03:16:54.699Z,4.83
2017-11-13T03:17:54.705Z,5.01
2017-11-13T03:18:54.683Z,5.14
2017-11-13T03:19:54.675Z,5.27
2017-11-13T03:20:54.656Z,5.40
2017-11-13T03:21:54.649Z,5.29
2017-11-13T03:22:54.639Z,5.17
2017-11-13T03:23:54.629Z,5.11
2017-11-13T03:24:54.611Z,5.04
2017-11-13T03:25:54.604Z,5.01
2017-11-13T03:26:54.595Z,5.06
2017-11-13T03:27:54.584Z,5.04
2017-11-13T03:28:54.563Z,5.22
2017-11-13T03:29:54.552Z,5.23
2017-11-13T03:30:54.542Z,5.27
2017-11-13T03:31:54.530Z,5.24
2017-11-13T03:32:54.519Z,5.17
2017-11-13T03:33:54.506Z,5.17
2017-11-13T03:34:54.493Z,5.22
2017-11-13T03:35:54.489Z,5.12
2017-11-13T03:36:54.472Z,5.14
2017-11-13T03:37:54.459Z,5.17
2017-11-13T03:38:54.463Z,5.35
2017-11-13T03:39:54.436Z,5.24
2017-11-13T03:40:54.425Z,5.24
2017-11-13T03:41:54.415Z,5.27
2017-11-13T03:42:54.405Z,5.19
2017-11-13T03:43:54.390Z,5.20
2017-11-13T03:44:54.380Z,5.19
2017-11-13T03:45:54.373Z,5.29
2017-11-13T03:46:54.357Z,5.17
2017-11-13T03:47:54.352Z,5.26
2017-11-13T03:48:54.340Z,5.23
2017-11-13T03:49:54.322Z,5.27
2017-11-13T03:50:54.311Z,5.02
2017-11-13T03:51:54.298Z,4.94
2017-11-13T03:52:54.296Z,5.02
2017-11-13T03:53:54.275Z,4.97
2017-11-13T03:54:54.265Z,4.91
2017-11-13T03:55:54.271Z,4.97
2017-11-13T03:56:54.242Z,5.06
2017-11-13T03:57:54.232Z,5.09
2017-11-13T03:58:54.219Z,5.11
2017-11-13T03:59:54.222Z,5.19
2017-11-13T04:00:54.208Z,5.22
2017-11-13T04:01:54.193Z,5.24
2017-11-13T04:02:54.178Z,5.30
2017-11-13T04:03:54.161Z,5.27
2017-11-13T04:04:54.156Z,5.23
2017-11-13T04:05:54.155Z,5.04
2017-11-13T04:06:54.126Z,5.05
2017-11-13T04:07:54.120Z,5.08
2017-11-13T04:08:54.102Z,5.01
2017-11-13T04:09:54.101Z,4.96
2017-11-13T04:10:54.096Z,5.05
2017-11-13T04:11:54.079Z,4.97
2017-11-13T04:12:54.061Z,5.05
2017-11-13T04:13:54.045Z,5.17
2017-11-13T04:14:54.034Z,5.20
2017-11-13T04:15:54.024Z,5.05
2017-11-13T04:16:54.018Z,5.14
2017-11-13T04:17:54.001Z,5.12
2017-11-13T04:18:53.996Z,5.20
2017-11-13T04:19:53.977Z,5.22
2017-11-13T04:20:53.966Z,5.37
2017-11-13T04:21:53.960Z,5.20
2017-11-13T04:22:53.951Z,5.14
2017-11-13T04:23:53.940Z,5.09
2017-11-13T04:24:53.928Z,5.06
2017-11-13T04:25:53.915Z,5.01
2017-11-13T04:26:53.906Z,5.08
2017-11-13T04:27:53.886Z,4.97
2017-11-13T04:28:53.875Z,5.08
2017-11-13T04:29:53.871Z,4.99
2017-11-13T04:30:53.853Z,4.94
2017-11-13T04:31:53.839Z,5.04
2017-11-13T04:32:53.841Z,5.04
2017-11-13T04:33:53.825Z,5.08
2017-11-13T04:34:53.804Z,5.01
2017-11-13T04:35:53.798Z,5.20
2017-11-13T04:36:53.791Z,5.23
2017-11-13T04:37:53.769Z,5.24
2017-11-13T04:38:53.761Z,5.11
2017-11-13T04:39:53.757Z,5.15
2017-11-13T04:40:53.769Z,5.19
2017-11-13T04:41:53.725Z,5.15
2017-11-13T04:42:53.715Z,5.22
2017-11-13T04:43:53.700Z,5.22
2017-11-13T04:44:53.689Z,5.11
2017-11-13T04:45:53.679Z,5.08
2017-11-13T04:46:53.674Z,5.05
2017-11-13T04:47:53.658Z,5.01
2017-11-13T04:48:53.652Z,4.99
2017-11-13T04:49:53.632Z,5.06
2017-11-13T04:50:53.620Z,4.96
2017-11-13T04:51:53.608Z,4.93
2017-11-13T04:52:53.595Z,4.93
2017-11-13T04:53:53.588Z,4.83
2017-11-13T04:54:53.581Z,4.86
2017-11-13T04:55:53.561Z,4.87
2017-11-13T04:56:53.565Z,4.83
2017-11-13T04:57:53.538Z,4.87
2017-11-13T04:58:53.529Z,4.84
2017-11-13T04:59:53.521Z,4.87
2017-11-13T05:00:53.512Z,4.91
2017-11-13T05:01:53.494Z,4.90
2017-11-13T05:02:53.487Z,4.93
2017-11-13T05:03:53.470Z,4.80
2017-11-13T05:04:53.464Z,4.79
2017-11-13T05:05:53.446Z,4.72
2017-11-13T05:06:53.440Z,4.83
2017-11-13T05:07:53.423Z,4.91
2017-11-13T05:08:53.416Z,4.84
2017-11-13T05:09:53.405Z,4.84
2017-11-13T05:10:53.389Z,4.90
2017-11-13T05:11:53.382Z,4.84
2017-11-13T05:12:53.365Z,4.84
2017-11-13T05:13:53.367Z,4.75
2017-11-13T05:14:53.349Z,4.84
2017-11-13T05:15:53.330Z,4.80
2017-11-13T05:16:53.324Z,4.77
2017-11-13T05:17:53.306Z,4.72
2017-11-13T05:18:53.297Z,4.91
2017-11-13T05:19:53.312Z,4.87
2017-11-13T05:20:53.271Z,4.79
2017-11-13T05:21:53.261Z,4.84
2017-11-13T05:22:53.258Z,4.90
2017-11-13T05:23:53.239Z,4.97
2017-11-13T05:24:53.225Z,5.11
2017-11-13T05:25:53.223Z,5.06
2017-11-13T05:26:53.208Z,5.02
2017-11-13T05:27:53.191Z,5.06
2017-11-13T05:28:53.180Z,5.04
2017-11-13T05:29:53.182Z,4.97
2017-11-13T05:30:53.159Z,4.86
2017-11-13T05:31:53.152Z,4.93
2017-11-13T05:32:53.138Z,4.91
2017-11-13T05:33:53.124Z,4.91
2017-11-13T05:34:53.111Z,4.93
2017-11-13T05:35:53.100Z,4.86
2017-11-13T05:36:53.094Z,4.84
2017-11-13T05:37:53.077Z,4.79
2017-11-13T05:38:53.065Z,4.80
2017-11-13T05:39:53.054Z,4.80
2017-11-13T05:40:53.046Z,4.71
2017-11-13T05:41:53.035Z,4.69
2017-11-13T05:42:53.027Z,4.71
2017-11-13T05:43:53.003Z,4.75
2017-11-13T05:44:53.003Z,4.75
2017-11-13T05:45:52.983Z,4.65
2017-11-13T05:46:52.968Z,4.56
2017-11-13T05:47:52.957Z,4.71
2017-11-13T05:48:52.948Z,4.67
2017-11-13T05:49:52.937Z,4.57
2017-11-13T05:50:52.925Z,4.57
2017-11-13T05:51:52.916Z,4.61
2017-11-13T05:52:52.899Z,4.61
2017-11-13T05:53:52.897Z,4.56
2017-11-13T05:54:52.882Z,4.46
2017-11-13T05:55:52.873Z,4.51
2017-11-13T05:56:52.850Z,4.46
2017-11-13T05:57:52.842Z,4.42
2017-11-13T05:58:52.828Z,4.47
2017-11-13T05:59:52.817Z,4.43
2017-11-13T06:00:52.806Z,4.44
2017-11-13T06:01:52.792Z,4.38
2017-11-13T06:02:52.779Z,4.56
2017-11-13T06:03:52.778Z,4.57
2017-11-13T06:04:52.756Z,4.56
2017-11-13T06:05:52.754Z,4.56
2017-11-13T06:06:52.738Z,4.51
2017-11-13T06:07:52.723Z,4.65
2017-11-13T06:08:52.717Z,4.77
2017-11-13T06:09:52.707Z,4.84
2017-11-13T06:10:52.710Z,4.84
2017-11-13T06:11:52.680Z,4.97
2017-11-13T06:12:52.662Z,4.93
2017-11-13T06:13:52.657Z,4.99
2017-11-13T06:14:52.640Z,4.87
2017-11-13T06:15:52.635Z,4.88
2017-11-13T06:16:52.618Z,4.90
2017-11-13T06:17:52.618Z,4.83
2017-11-13T06:18:52.594Z,4.88
2017-11-13T06:19:52.585Z,4.97
2017-11-13T06:20:52.574Z,5.01
2017-11-13T06:21:52.563Z,4.99
2017-11-13T06:22:52.556Z,4.86
2017-11-13T06:23:52.534Z,5.01
2017-11-13T06:24:52.524Z,4.90
2017-11-13T06:25:52.510Z,4.90
2017-11-13T06:26:52.501Z,4.90
2017-11-13T06:27:52.488Z,4.84
2017-11-13T06:28:52.490Z,4.80
2017-11-13T06:29:52.470Z,4.87
2017-11-13T06:30:52.479Z,4.84
2017-11-13T06:31:52.447Z,4.84
2017-11-13T06:32:52.432Z,4.80
2017-11-13T06:33:52.428Z,4.75
2017-11-13T06:34:52.409Z,4.68
2017-11-13T06:35:52.403Z,4.71
2017-11-13T06:36:52.383Z,4.71
2017-11-13T06:37:52.379Z,4.86
2017-11-13T06:38:52.362Z,5.05
2017-11-13T06:39:52.346Z,5.01
2017-11-13T06:40:52.338Z,5.02
2017-11-13T06:41:52.327Z,4.97
2017-11-13T06:42:52.320Z,5.11
2017-11-13T06:43:52.313Z,5.09
2017-11-13T06:44:52.298Z,4.94
2017-11-13T06:45:52.279Z,4.93
2017-11-13T06:46:52.269Z,4.88
2017-11-13T06:47:52.255Z,4.90
2017-11-13T06:48:52.248Z,4.86
2017-11-13T06:49:52.233Z,4.86
2017-11-13T06:50:52.228Z,4.84
2017-11-13T06:51:52.221Z,4.87
2017-11-13T06:52:52.203Z,4.79
2017-11-13T06:53:52.197Z,4.68
2017-11-13T06:54:52.179Z,4.74
2017-11-13T06:55:52.170Z,4.75
2017-11-13T06:56:52.153Z,4.69
2017-11-13T06:57:52.150Z,4.67
2017-11-13T06:58:52.129Z,4.61
2017-11-13T06:59:52.137Z,4.57
2017-11-13T07:00:52.103Z,4.54
2017-11-13T07:01:52.093Z,4.59
2017-11-13T07:02:52.082Z,4.56
2017-11-13T07:03:52.069Z,4.59
2017-11-13T07:04:52.066Z,4.56
2017-11-13T07:05:52.047Z,4.54
2017-11-13T07:06:52.035Z,4.65
2017-11-13T07:07:52.038Z,4.65
2017-11-13T07:08:52.010Z,4.62
2017-11-13T07:09:52.000Z,4.74
2017-11-13T07:10:52.002Z,4.72
2017-11-13T07:11:51.990Z,4.71
2017-11-13T07:12:51.967Z,4.68
2017-11-13T07:13:51.955Z,4.68
2017-11-13T07:14:51.945Z,4.69
2017-11-13T07:15:51.932Z,4.80
2017-11-13T07:16:51.928Z,4.84
2017-11-13T07:17:51.913Z,4.90
2017-11-13T07:18:51.912Z,4.80
2017-11-13T07:19:51.899Z,4.90
2017-11-13T07:20:51.883Z,4.88
2017-11-13T07:21:51.897Z,4.93
2017-11-13T07:22:51.854Z,4.90
2017-11-13T07:23:51.842Z,4.91
2017-11-13T07:24:51.831Z,5.02
2017-11-13T07:25:51.827Z,4.97
2017-11-13T07:26:51.816Z,4.99
2017-11-13T07:27:51.797Z,4.93
2017-11-13T07:28:51.802Z,4.87
2017-11-13T07:29:51.782Z,4.87
2017-11-13T07:30:51.764Z,5.01
2017-11-13T07:31:51.754Z,4.99
2017-11-13T07:32:51.745Z,5.02
2017-11-13T07:33:51.744Z,5.05
2017-11-13T07:34:51.728Z,4.99
2017-11-13T07:35:51.721Z,4.93
2017-11-13T07:36:51.702Z,4.84
2017-11-13T07:37:51.700Z,4.88
2017-11-13T07:38:51.676Z,4.91
2017-11-13T07:39:51.662Z,4.86
2017-11-13T07:40:51.649Z,4.88
2017-11-13T07:41:51.640Z,4.96
2017-11-13T07:42:51.640Z,5.05
2017-11-13T07:43:51.617Z,5.02
2017-11-13T07:44:51.631Z,4.94
2017-11-13T07:45:51.599Z,5.08
2017-11-13T07:46:51.592Z,5.24
2017-11-13T07:47:51.572Z,5.24
2017-11-13T07:48:51.568Z,5.27
2017-11-13T07:49:51.555Z,5.23
2017-11-13T07:50:51.547Z,5.40
2017-11-13T07:51:51.527Z,5.45
2017-11-13T07:52:51.513Z,5.47
2017-11-13T07:53:51.505Z,5.45
2017-11-13T07:54:51.499Z,5.56
2017-11-13T07:55:51.484Z,5.58
2017-11-13T07:56:51.480Z,5.60
2017-11-13T07:57:51.459Z,5.62
2017-11-13T07:58:51.449Z,5.56
2017-11-13T07:59:51.449Z,5.55
2017-11-13T08:00:51.431Z,5.42
2017-11-13T08:01:51.427Z,5.33
2017-11-13T08:02:51.412Z,5.29
2017-11-13T08:03:51.391Z,5.23
2017-11-13T08:04:51.389Z,5.23
2017-11-13T08:05:51.370Z,5.30
2017-11-13T08:06:51.385Z,5.23
2017-11-13T08:07:51.346Z,5.26
2017-11-13T08:08:51.335Z,5.24
2017-11-13T08:09:51.324Z,5.29
2017-11-13T08:10:51.324Z,5.32
2017-11-13T08:11:51.300Z,5.52
2017-11-13T08:12:51.290Z,5.60
2017-11-13T08:13:51.277Z,5.59
2017-11-13T08:14:51.268Z,5.59
2017-11-13T08:15:51.256Z,5.60
2017-11-13T08:16:51.253Z,5.63
2017-11-13T08:17:51.235Z,5.55
2017-11-13T08:18:51.237Z,5.42
2017-11-13T08:19:51.212Z,5.44
2017-11-13T08:20:51.223Z,5.49
2017-11-13T08:21:51.197Z,5.45
2017-11-13T08:22:51.189Z,5.45
2017-11-13T08:23:51.172Z,5.49
2017-11-13T08:24:51.156Z,5.55
2017-11-13T08:25:51.145Z,5.59
2017-11-13T08:26:51.142Z,5.47
2017-11-13T08:27:51.127Z,5.47
2017-11-13T08:28:51.110Z,5.52
2017-11-13T08:29:51.102Z,5.63
2017-11-13T08:30:51.090Z,5.59
2017-11-13T08:31:51.079Z,5.59
2017-11-13T08:32:51.067Z,5.74
2017-11-13T08:33:51.056Z,5.69
2017-11-13T08:34:51.050Z,5.69
2017-11-13T08:35:51.035Z,5.69
2017-11-13T08:36:51.029Z,5.74
2017-11-13T08:37:51.012Z,5.84
2017-11-13T08:38:50.999Z,5.87
2017-11-13T08:39:50.989Z,5.84
2017-11-13T08:40:50.976Z,5.84
2017-11-13T08:41:50.965Z,5.74
2017-11-13T08:42:50.963Z,5.87
2017-11-13T08:43:50.946Z,5.84
2017-11-13T08:44:50.941Z,5.87
2017-11-13T08:45:50.928Z,5.93
2017-11-13T08:46:50.915Z,5.83
2017-11-13T08:47:50.903Z,5.95
2017-11-13T08:48:50.897Z,5.98
2017-11-13T08:49:50.884Z,6.05
2017-11-13T08:50:50.876Z,6.17
2017-11-13T08:51:50.865Z,6.21
2017-11-13T08:52:50.852Z,6.20
2017-11-13T08:53:50.839Z,6.16
2017-11-13T08:54:50.839Z,6.13
2017-11-13T08:55:50.812Z,6.28
2017-11-13T08:56:50.805Z,6.28
2017-11-13T08:57:50.793Z,6.32
2017-11-13T08:58:50.795Z,6.27
2017-11-13T08:59:50.769Z,6.33
2017-11-13T09:00:50.773Z,6.35
2017-11-13T09:01:50.749Z,6.35
2017-11-13T09:02:50.746Z,6.46
2017-11-13T09:03:50.729Z,6.45
2017-11-13T09:04:50.718Z,6.68
2017-11-13T09:05:50.706Z,6.76
2017-11-13T09:06:50.697Z,6.64
2017-11-13T09:07:50.688Z,6.64
2017-11-13T09:08:50.681Z,6.36
2017-11-13T09:09:50.669Z,6.28
2017-11-13T09:10:50.667Z,6.36
2017-11-13T09:11:50.645Z,6.28
2017-11-13T09:12:50.635Z,6.27
2017-11-13T09:13:50.636Z,6.38
2017-11-13T09:14:50.624Z,6.38
2017-11-13T09:15:50.606Z,6.30
2017-11-13T09:16:50.594Z,6.40
2017-11-13T09:17:50.583Z,6.39
2017-11-13T09:18:50.591Z,6.46
2017-11-13T09:19:50.570Z,6.60
2017-11-13T09:20:50.554Z,6.69
2017-11-13T09:21:50.548Z,6.75
2017-11-13T09:22:50.544Z,6.72
2017-11-13T09:23:50.521Z,6.69
2017-11-13T09:24:50.518Z,6.61
2017-11-13T09:25:50.502Z,6.61
2017-11-13T09:26:50.496Z,6.64
2017-11-13T09:27:50.490Z,6.65
2017-11-13T09:28:50.469Z,6.69
2017-11-13T09:29:50.471Z,6.53
2017-11-13T09:30:50.451Z,6.58
2017-11-13T09:31:50.450Z,6.53
2017-11-13T09:32:50.438Z,6.63
2017-11-13T09:33:50.421Z,6.60
2017-11-13T09:34:50.413Z,6.71
2017-11-13T09:35:50.403Z,6.68
2017-11-13T09:36:50.389Z,6.83
2017-11-13T09:37:50.378Z,6.83
2017-11-13T09:38:50.381Z,6.86
2017-11-13T09:39:50.368Z,6.87
2017-11-13T09:40:50.348Z,6.83
2017-11-13T09:41:50.352Z,6.87
2017-11-13T09:42:50.328Z,6.89
2017-11-13T09:43:50.317Z,6.87
2017-11-13T09:44:50.308Z,6.93
2017-11-13T09:45:50.298Z,7.00
2017-11-13T09:46:50.285Z,6.94
2017-11-13T09:47:50.280Z,6.91
2017-11-13T09:48:50.272Z,7.00
2017-11-13T09:49:50.266Z,6.93
2017-11-13T09:50:50.249Z,6.97
2017-11-13T09:51:50.263Z,6.90
2017-11-13T09:52:50.228Z,7.05
2017-11-13T09:53:50.218Z,7.08
2017-11-13T09:54:50.219Z,7.18
2017-11-13T09:55:50.197Z,7.23
2017-11-13T09:56:50.197Z,7.19
2017-11-13T09:57:50.178Z,7.16
2017-11-13T09:58:50.182Z,6.87
2017-11-13T09:59:50.165Z,6.64
2017-11-13T10:00:50.164Z,6.72
2017-11-13T10:01:50.137Z,6.86
2017-11-13T10:02:50.127Z,6.94
2017-11-13T10:03:50.116Z,6.96
2017-11-13T10:04:50.108Z,6.99
2017-11-13T10:05:50.097Z,7.12
2017-11-13T10:06:50.090Z,7.14
2017-11-13T10:07:50.076Z,7.14
2017-11-13T10:08:50.068Z,7.18
2017-11-13T10:09:50.066Z,7.14
2017-11-13T10:10:50.054Z,7.07
2017-11-13T10:11:50.038Z,6.99
2017-11-13T10:12:50.029Z,6.97
2017-11-13T10:13:50.025Z,6.90
2017-11-13T10:14:50.039Z,6.94
2017-11-13T10:15:50.008Z,7.05
2017-11-13T10:16:49.988Z,7.12
2017-11-13T10:17:49.980Z,6.93
2017-11-13T10:18:49.969Z,7.01
2017-11-13T10:19:49.968Z,7.07
2017-11-13T10:20:49.949Z,7.07
2017-11-13T10:21:49.939Z,7.07
2017-11-13T10:22:49.937Z,7.05
2017-11-13T10:23:49.933Z,7.01
2017-11-13T10:24:49.917Z,7.12
2017-11-13T10:25:49.900Z,7.11
2017-11-13T10:26:49.896Z,7.16
2017-11-13T10:27:49.887Z,7.18
2017-11-13T10:28:49.871Z,7.21
2017-11-13T10:29:49.861Z,7.42
2017-11-13T10:30:49.850Z,7.30
2017-11-13T10:31:49.849Z,7.34
2017-11-13T10:32:49.831Z,7.45
2017-11-13T10:33:49.823Z,7.39
2017-11-13T10:34:49.813Z,7.50
2017-11-13T10:35:49.808Z,7.52
2017-11-13T10:36:49.791Z,7.54
2017-11-13T10:37:49.785Z,7.55
2017-11-13T10:38:49.774Z,7.55
2017-11-13T10:39:49.761Z,7.51
2017-11-13T10:40:49.755Z,7.54
2017-11-13T10:41:49.750Z,7.66
2017-11-13T10:42:49.732Z,7.76
2017-11-13T10:43:49.729Z,7.77
2017-11-13T10:44:49.714Z,7.88
2017-11-13T10:45:49.711Z,7.32
2017-11-13T10:46:49.706Z,7.15
2017-11-13T10:47:49.688Z,7.18
2017-11-13T10:48:49.679Z,6.94
2017-11-13T10:49:49.664Z,6.89
2017-11-13T10:50:49.655Z,6.58
2017-11-13T10:51:49.649Z,6.38
2017-11-13T10:52:49.642Z,6.24
2017-11-13T10:53:49.623Z,6.36
2017-11-13T10:54:49.614Z,6.45
2017-11-13T10:55:49.604Z,6.46
2017-11-13T10:56:49.594Z,6.69
2017-11-13T10:57:49.585Z,6.69
2017-11-13T10:58:49.572Z,6.72
2017-11-13T10:59:49.577Z,6.79
2017-11-13T11:00:49.552Z,6.81
2017-11-13T11:01:49.547Z,6.86
2017-11-13T11:02:49.531Z,6.73
2017-11-13T11:03:49.522Z,6.87
2017-11-13T11:04:49.515Z,6.87
2017-11-13T11:05:49.500Z,6.90
2017-11-13T11:06:49.489Z,6.82
2017-11-13T11:07:49.490Z,6.65
2017-11-13T11:08:49.482Z,6.51
2017-11-13T11:09:49.458Z,6.57
2017-11-13T11:10:49.449Z,6.65
2017-11-13T11:11:49.443Z,6.69
2017-11-13T11:12:49.427Z,7.00
2017-11-13T11:13:49.422Z,7.00
2017-11-13T11:14:49.404Z,6.68
2017-11-13T11:15:49.398Z,6.48
2017-11-13T11:16:49.382Z,6.27
2017-11-13T11:17:49.376Z,6.16
2017-11-13T11:18:49.375Z,6.20
2017-11-13T11:19:49.351Z,6.19
2017-11-13T11:20:49.341Z,6.17
2017-11-13T11:21:49.333Z,6.19
2017-11-13T11:22:49.327Z,6.13
2017-11-13T11:23:49.312Z,6.20
2017-11-13T11:24:49.305Z,6.30
2017-11-13T11:25:49.289Z,6.45
2017-11-13T11:26:49.275Z,6.57
2017-11-13T11:27:49.267Z,6.61
2017-11-13T11:28:49.264Z,6.83
2017-11-13T11:29:49.249Z,6.94
2017-11-13T11:30:49.230Z,7.04
2017-11-13T11:31:49.219Z,7.21
2017-11-13T11:32:49.218Z,7.18
2017-11-13T11:33:49.205Z,7.24
2017-11-13T11:34:49.198Z,7.24
2017-11-13T11:35:49.176Z,7.44
2017-11-13T11:36:49.170Z,7.27
2017-11-13T11:37:49.168Z,7.26
2017-11-13T11:38:49.147Z,7.26
2017-11-13T11:39:49.145Z,7.29
2017-11-13T11:40:49.131Z,7.12
2017-11-13T11:41:49.120Z,7.08
2017-11-13T11:42:49.106Z,7.05
2017-11-13T11:43:49.109Z,7.08
2017-11-13T11:44:49.089Z,7.11
2017-11-13T11:45:49.075Z,7.12
2017-11-13T11:46:49.065Z,7.08
2017-11-13T11:47:49.056Z,7.14
2017-11-13T11:48:49.045Z,7.15
2017-11-13T11:49:49.039Z,7.14
2017-11-13T11:50:49.027Z,7.15
2017-11-13T11:51:49.014Z,7.29
2017-11-13T11:52:49.011Z,7.44
2017-11-13T11:53:48.992Z,7.48
2017-11-13T11:54:48.983Z,7.52
2017-11-13T11:55:48.978Z,7.63
2017-11-13T11:56:48.962Z,7.63
2017-11-13T11:57:48.955Z,7.81
2017-11-13T11:58:48.948Z,7.77
2017-11-13T11:59:48.938Z,7.69
2017-11-13T12:00:48.931Z,7.71
2017-11-13T12:01:48.922Z,7.79
2017-11-13T12:02:48.905Z,7.86
2017-11-13T12:03:48.896Z,7.88
2017-11-13T12:04:48.886Z,7.89
2017-11-13T12:05:48.886Z,7.91
2017-11-13T12:06:48.867Z,8.21
2017-11-13T12:07:48.872Z,8.14
2017-11-13T12:08:48.852Z,8.29
2017-11-13T12:09:48.851Z,8.29
2017-11-13T12:10:48.828Z,8.34
2017-11-13T12:11:48.819Z,8.32
2017-11-13T12:12:48.815Z,8.47
2017-11-13T12:13:48.802Z,8.47
2017-11-13T12:14:48.796Z,8.50
2017-11-13T12:15:48.783Z,8.57
2017-11-13T12:16:48.775Z,8.63
2017-11-13T12:17:48.774Z,8.68
2017-11-13T12:18:48.771Z,8.71
2017-11-13T12:19:48.750Z,8.68
2017-11-13T12:20:48.747Z,8.63
2017-11-13T12:21:48.728Z,8.43
2017-11-13T12:22:48.723Z,8.29
2017-11-13T12:23:48.710Z,8.18
2017-11-13T12:24:48.702Z,8.10
2017-11-13T12:25:48.696Z,8.27
2017-11-13T12:26:48.692Z,8.29
2017-11-13T12:27:48.675Z,8.28
2017-11-13T12:28:48.683Z,8.29
2017-11-13T12:29:48.664Z,8.36
2017-11-13T12:30:48.649Z,8.36
2017-11-13T12:31:48.637Z,8.28
2017-11-13T12:32:48.633Z,8.37
2017-11-13T12:33:48.622Z,8.47
2017-11-13T12:34:48.617Z,8.52
2017-11-13T12:35:48.618Z,8.45
2017-11-13T12:36:48.598Z,8.47
2017-11-13T12:37:48.586Z,8.52
2017-11-13T12:38:48.576Z,8.64
2017-11-13T12:39:48.566Z,8.45
2017-11-13T12:40:48.558Z,8.46
2017-11-13T12:41:48.557Z,8.42
2017-11-13T12:42:48.541Z,8.47
2017-11-13T12:43:48.531Z,8.34
2017-11-13T12:44:48.529Z,8.13
2017-11-13T12:45:48.512Z,8.07
2017-11-13T12:46:48.522Z,8.21
2017-11-13T12:47:48.511Z,8.12
2017-11-13T12:48:48.486Z,8.28
2017-11-13T12:49:48.479Z,8.32
2017-11-13T12:50:48.471Z,8.29
2017-11-13T12:51:48.465Z,8.29
2017-11-13T12:52:48.463Z,8.31
2017-11-13T12:53:48.442Z,8.31
2017-11-13T12:54:48.434Z,8.10
2017-11-13T12:55:48.425Z,7.52
2017-11-13T12:56:48.415Z,7.42
2017-11-13T12:57:48.415Z,7.30
2017-11-13T12:58:48.400Z,7.05
2017-11-13T12:59:48.388Z,7.00
2017-11-13T13:00:48.385Z,7.01
2017-11-13T13:01:48.378Z,7.05
2017-11-13T13:02:48.360Z,7.00
2017-11-13T13:03:48.358Z,6.91
2017-11-13T13:04:48.339Z,6.97
2017-11-13T13:05:48.332Z,7.01
2017-11-13T13:06:48.322Z,7.29
2017-11-13T13:07:48.309Z,7.23
2017-11-13T13:08:48.305Z,7.34
2017-11-13T13:09:48.294Z,7.42
2017-11-13T13:10:48.295Z,7.44
2017-11-13T13:11:48.275Z,7.63
2017-11-13T13:12:48.268Z,7.73
2017-11-13T13:13:48.251Z,7.74
2017-11-13T13:14:48.242Z,7.84
2017-11-13T13:15:48.242Z,7.70
2017-11-13T13:16:48.222Z,7.67
2017-11-13T13:17:48.213Z,7.58
2017-11-13T13:18:48.209Z,7.45